sensor_id;sensor_type;location;lat;lon;timestamp;temperature;humidity
23633;DHT22;11993;48.748;9.166;2023-08-07T00:02:25;11.70;83.60
23633;DHT22;11993;48.748;9.166;2023-08-07T00:04:51;11.70;83.90
23633;DHT22;11993;48.748;9.166;2023-08-07T00:07:16;11.70;83.50
23633;DHT22;11993;48.748;9.166;2023-08-07T00:09:43;11.60;83.30
23633;DHT22;11993;48.748;9.166;2023-08-07T00:12:09;11.60;83.70
23633;DHT22;11993;48.748;9.166;2023-08-07T00:14:34;11.60;83.30
23633;DHT22;11993;48.748;9.166;2023-08-07T00:17:00;11.60;83.80
23633;DHT22;11993;48.748;9.166;2023-08-07T00:19:26;11.60;83.70
23633;DHT22;11993;48.748;9.166;2023-08-07T00:21:51;11.60;83.20
23633;DHT22;11993;48.748;9.166;2023-08-07T00:24:17;11.60;83.30
23633;DHT22;11993;48.748;9.166;2023-08-07T00:26:42;11.60;83.10
23633;DHT22;11993;48.748;9.166;2023-08-07T00:29:08;11.70;83.10
23633;DHT22;11993;48.748;9.166;2023-08-07T00:31:33;11.60;83.10
23633;DHT22;11993;48.748;9.166;2023-08-07T00:33:59;11.60;83.10
23633;DHT22;11993;48.748;9.166;2023-08-07T00:36:24;11.60;82.80
23633;DHT22;11993;48.748;9.166;2023-08-07T00:38:50;11.70;82.60
23633;DHT22;11993;48.748;9.166;2023-08-07T00:41:17;11.60;82.10
23633;DHT22;11993;48.748;9.166;2023-08-07T00:43:43;11.60;82.30
23633;DHT22;11993;48.748;9.166;2023-08-07T00:46:09;11.60;82.30
23633;DHT22;11993;48.748;9.166;2023-08-07T00:48:34;11.60;82.00
23633;DHT22;11993;48.748;9.166;2023-08-07T00:51:01;11.60;82.30
23633;DHT22;11993;48.748;9.166;2023-08-07T00:53:27;11.70;82.00
23633;DHT22;11993;48.748;9.166;2023-08-07T00:55:53;11.70;81.90
23633;DHT22;11993;48.748;9.166;2023-08-07T00:58:18;11.80;81.60
23633;DHT22;11993;48.748;9.166;2023-08-07T01:00:44;11.70;81.80
23633;DHT22;11993;48.748;9.166;2023-08-07T01:03:12;11.70;82.00
23633;DHT22;11993;48.748;9.166;2023-08-07T01:05:38;11.70;81.80
23633;DHT22;11993;48.748;9.166;2023-08-07T01:08:04;11.80;81.70
23633;DHT22;11993;48.748;9.166;2023-08-07T01:10:50;11.60;82.10
23633;DHT22;11993;48.748;9.166;2023-08-07T01:13:29;11.70;81.60
23633;DHT22;11993;48.748;9.166;2023-08-07T01:16:01;11.70;81.90
23633;DHT22;11993;48.748;9.166;2023-08-07T01:18:29;11.70;81.60
23633;DHT22;11993;48.748;9.166;2023-08-07T01:20:55;11.70;81.30
23633;DHT22;11993;48.748;9.166;2023-08-07T01:23:20;11.80;81.30
23633;DHT22;11993;48.748;9.166;2023-08-07T01:25:46;11.80;82.00
23633;DHT22;11993;48.748;9.166;2023-08-07T01:28:26;11.80;81.50
23633;DHT22;11993;48.748;9.166;2023-08-07T01:30:56;11.80;81.90
23633;DHT22;11993;48.748;9.166;2023-08-07T01:33:32;11.90;81.40
23633;DHT22;11993;48.748;9.166;2023-08-07T01:36:02;11.90;81.70
23633;DHT22;11993;48.748;9.166;2023-08-07T01:38:29;12.00;81.00
23633;DHT22;11993;48.748;9.166;2023-08-07T01:40:56;11.80;81.50
23633;DHT22;11993;48.748;9.166;2023-08-07T01:43:22;11.80;81.30
23633;DHT22;11993;48.748;9.166;2023-08-07T01:45:48;11.70;80.80
23633;DHT22;11993;48.748;9.166;2023-08-07T01:48:13;11.80;80.80
23633;DHT22;11993;48.748;9.166;2023-08-07T01:50:39;11.70;81.00
23633;DHT22;11993;48.748;9.166;2023-08-07T01:53:05;11.70;81.30
23633;DHT22;11993;48.748;9.166;2023-08-07T01:55:31;11.80;81.40
23633;DHT22;11993;48.748;9.166;2023-08-07T01:57:57;11.80;81.20
23633;DHT22;11993;48.748;9.166;2023-08-07T02:00:22;11.80;81.30
23633;DHT22;11993;48.748;9.166;2023-08-07T02:02:48;11.80;81.60
23633;DHT22;11993;48.748;9.166;2023-08-07T02:05:14;11.80;81.60
23633;DHT22;11993;48.748;9.166;2023-08-07T02:07:41;11.80;80.60
23633;DHT22;11993;48.748;9.166;2023-08-07T02:10:07;11.70;80.80
23633;DHT22;11993;48.748;9.166;2023-08-07T02:12:33;11.70;80.30
23633;DHT22;11993;48.748;9.166;2023-08-07T02:14:59;11.70;79.30
23633;DHT22;11993;48.748;9.166;2023-08-07T02:17:26;11.70;79.30
23633;DHT22;11993;48.748;9.166;2023-08-07T02:19:52;11.70;79.00
23633;DHT22;11993;48.748;9.166;2023-08-07T02:22:17;11.70;79.40
23633;DHT22;11993;48.748;9.166;2023-08-07T02:24:43;11.70;79.60
23633;DHT22;11993;48.748;9.166;2023-08-07T02:27:09;11.70;79.10
23633;DHT22;11993;48.748;9.166;2023-08-07T02:29:34;11.80;79.50
23633;DHT22;11993;48.748;9.166;2023-08-07T02:32:01;11.70;79.30
23633;DHT22;11993;48.748;9.166;2023-08-07T02:34:28;11.70;79.10
23633;DHT22;11993;48.748;9.166;2023-08-07T02:36:54;11.60;78.90
23633;DHT22;11993;48.748;9.166;2023-08-07T02:39:19;11.60;79.20
23633;DHT22;11993;48.748;9.166;2023-08-07T02:41:45;11.70;79.40
23633;DHT22;11993;48.748;9.166;2023-08-07T02:44:11;11.60;78.60
23633;DHT22;11993;48.748;9.166;2023-08-07T02:46:36;11.60;78.10
23633;DHT22;11993;48.748;9.166;2023-08-07T02:49:02;11.60;77.90
23633;DHT22;11993;48.748;9.166;2023-08-07T02:51:28;11.60;77.40
23633;DHT22;11993;48.748;9.166;2023-08-07T02:53:53;11.50;77.00
23633;DHT22;11993;48.748;9.166;2023-08-07T02:56:19;11.50;77.10
23633;DHT22;11993;48.748;9.166;2023-08-07T02:58:44;11.50;77.20
23633;DHT22;11993;48.748;9.166;2023-08-07T03:01:10;11.50;77.40
23633;DHT22;11993;48.748;9.166;2023-08-07T03:03:37;11.60;77.00
23633;DHT22;11993;48.748;9.166;2023-08-07T03:06:03;11.50;76.80
23633;DHT22;11993;48.748;9.166;2023-08-07T03:08:28;11.50;76.80
23633;DHT22;11993;48.748;9.166;2023-08-07T03:10:56;11.60;76.90
23633;DHT22;11993;48.748;9.166;2023-08-07T03:13:23;11.50;77.20
23633;DHT22;11993;48.748;9.166;2023-08-07T03:15:48;11.40;77.00
23633;DHT22;11993;48.748;9.166;2023-08-07T03:18:16;11.40;77.40
23633;DHT22;11993;48.748;9.166;2023-08-07T03:20:41;11.50;77.20
23633;DHT22;11993;48.748;9.166;2023-08-07T03:23:09;11.40;77.40
23633;DHT22;11993;48.748;9.166;2023-08-07T03:25:34;11.40;77.10
23633;DHT22;11993;48.748;9.166;2023-08-07T03:28:00;11.40;77.20
23633;DHT22;11993;48.748;9.166;2023-08-07T03:30:25;11.30;77.40
23633;DHT22;11993;48.748;9.166;2023-08-07T03:32:51;11.30;77.50
23633;DHT22;11993;48.748;9.166;2023-08-07T03:35:16;11.30;77.90
23633;DHT22;11993;48.748;9.166;2023-08-07T03:37:42;11.30;77.60
23633;DHT22;11993;48.748;9.166;2023-08-07T03:40:08;11.40;77.50
23633;DHT22;11993;48.748;9.166;2023-08-07T03:42:33;11.30;77.80
23633;DHT22;11993;48.748;9.166;2023-08-07T03:44:59;11.30;78.00
23633;DHT22;11993;48.748;9.166;2023-08-07T03:47:24;11.20;78.30
23633;DHT22;11993;48.748;9.166;2023-08-07T03:49:50;11.20;77.80
23633;DHT22;11993;48.748;9.166;2023-08-07T03:52:15;11.20;77.90
23633;DHT22;11993;48.748;9.166;2023-08-07T03:54:43;11.30;78.30
23633;DHT22;11993;48.748;9.166;2023-08-07T03:57:08;11.30;78.10
23633;DHT22;11993;48.748;9.166;2023-08-07T03:59:34;11.20;78.10
23633;DHT22;11993;48.748;9.166;2023-08-07T04:01:59;11.20;78.00
23633;DHT22;11993;48.748;9.166;2023-08-07T04:04:25;11.20;78.00
23633;DHT22;11993;48.748;9.166;2023-08-07T04:06:50;11.20;78.10
23633;DHT22;11993;48.748;9.166;2023-08-07T04:09:16;11.10;78.20
23633;DHT22;11993;48.748;9.166;2023-08-07T04:11:42;11.20;78.20
23633;DHT22;11993;48.748;9.166;2023-08-07T04:14:08;11.20;78.30
23633;DHT22;11993;48.748;9.166;2023-08-07T04:16:33;11.10;78.30
23633;DHT22;11993;48.748;9.166;2023-08-07T04:18:59;11.20;78.20
23633;DHT22;11993;48.748;9.166;2023-08-07T04:21:24;11.20;78.20
23633;DHT22;11993;48.748;9.166;2023-08-07T04:23:50;11.20;78.20
23633;DHT22;11993;48.748;9.166;2023-08-07T04:26:15;11.10;78.60
23633;DHT22;11993;48.748;9.166;2023-08-07T04:28:41;11.10;78.40
23633;DHT22;11993;48.748;9.166;2023-08-07T04:31:07;11.20;78.20
23633;DHT22;11993;48.748;9.166;2023-08-07T04:33:33;11.20;78.40
23633;DHT22;11993;48.748;9.166;2023-08-07T04:35:59;11.20;77.90
23633;DHT22;11993;48.748;9.166;2023-08-07T04:38:24;11.20;78.00
23633;DHT22;11993;48.748;9.166;2023-08-07T04:40:51;11.30;77.90
23633;DHT22;11993;48.748;9.166;2023-08-07T04:43:18;11.20;78.10
23633;DHT22;11993;48.748;9.166;2023-08-07T04:45:45;11.20;77.70
23633;DHT22;11993;48.748;9.166;2023-08-07T04:48:11;11.30;77.80
23633;DHT22;11993;48.748;9.166;2023-08-07T04:50:39;11.40;77.40
23633;DHT22;11993;48.748;9.166;2023-08-07T04:53:05;11.40;77.30
23633;DHT22;11993;48.748;9.166;2023-08-07T04:55:31;11.40;77.10
23633;DHT22;11993;48.748;9.166;2023-08-07T04:57:57;11.50;76.70
23633;DHT22;11993;48.748;9.166;2023-08-07T05:00:23;11.50;76.60
23633;DHT22;11993;48.748;9.166;2023-08-07T05:02:49;11.60;76.80
23633;DHT22;11993;48.748;9.166;2023-08-07T05:05:15;11.60;76.80
23633;DHT22;11993;48.748;9.166;2023-08-07T05:07:41;11.60;76.80
23633;DHT22;11993;48.748;9.166;2023-08-07T05:10:08;11.60;76.70
23633;DHT22;11993;48.748;9.166;2023-08-07T05:12:34;11.70;76.10
23633;DHT22;11993;48.748;9.166;2023-08-07T05:14:59;11.50;76.40
23633;DHT22;11993;48.748;9.166;2023-08-07T05:17:25;11.60;75.70
23633;DHT22;11993;48.748;9.166;2023-08-07T05:19:50;11.60;76.20
23633;DHT22;11993;48.748;9.166;2023-08-07T05:22:16;11.60;76.10
23633;DHT22;11993;48.748;9.166;2023-08-07T05:24:41;11.70;75.90
23633;DHT22;11993;48.748;9.166;2023-08-07T05:27:09;11.70;75.80
23633;DHT22;11993;48.748;9.166;2023-08-07T05:29:35;11.80;75.60
23633;DHT22;11993;48.748;9.166;2023-08-07T05:32:09;11.90;75.40
23633;DHT22;11993;48.748;9.166;2023-08-07T05:34:34;11.90;75.20
23633;DHT22;11993;48.748;9.166;2023-08-07T05:37:00;11.90;75.40
23633;DHT22;11993;48.748;9.166;2023-08-07T05:39:25;12.00;75.50
23633;DHT22;11993;48.748;9.166;2023-08-07T05:41:51;11.90;75.40
23633;DHT22;11993;48.748;9.166;2023-08-07T05:44:19;12.00;75.00
23633;DHT22;11993;48.748;9.166;2023-08-07T05:46:44;12.10;75.30
23633;DHT22;11993;48.748;9.166;2023-08-07T05:49:10;12.10;75.00
23633;DHT22;11993;48.748;9.166;2023-08-07T05:51:35;12.10;74.70
23633;DHT22;11993;48.748;9.166;2023-08-07T05:54:01;12.10;75.00
23633;DHT22;11993;48.748;9.166;2023-08-07T05:56:26;12.10;75.10
23633;DHT22;11993;48.748;9.166;2023-08-07T05:58:52;12.20;74.30
23633;DHT22;11993;48.748;9.166;2023-08-07T06:01:18;12.30;74.80
23633;DHT22;11993;48.748;9.166;2023-08-07T06:03:43;12.30;73.90
23633;DHT22;11993;48.748;9.166;2023-08-07T06:06:09;12.30;74.40
23633;DHT22;11993;48.748;9.166;2023-08-07T06:08:34;12.20;74.60
23633;DHT22;11993;48.748;9.166;2023-08-07T06:11:00;12.40;73.80
23633;DHT22;11993;48.748;9.166;2023-08-07T06:13:30;12.30;73.60
23633;DHT22;11993;48.748;9.166;2023-08-07T06:15:56;12.50;74.30
23633;DHT22;11993;48.748;9.166;2023-08-07T06:18:25;12.60;74.20
23633;DHT22;11993;48.748;9.166;2023-08-07T06:20:56;12.50;73.80
23633;DHT22;11993;48.748;9.166;2023-08-07T06:23:22;12.50;73.50
23633;DHT22;11993;48.748;9.166;2023-08-07T06:25:47;12.60;73.50
23633;DHT22;11993;48.748;9.166;2023-08-07T06:28:13;12.60;73.60
23633;DHT22;11993;48.748;9.166;2023-08-07T06:30:38;12.60;74.70
23633;DHT22;11993;48.748;9.166;2023-08-07T06:33:04;12.70;73.60
23633;DHT22;11993;48.748;9.166;2023-08-07T06:35:29;12.70;73.30
23633;DHT22;11993;48.748;9.166;2023-08-07T06:37:55;12.70;73.50
23633;DHT22;11993;48.748;9.166;2023-08-07T06:40:20;12.70;73.60
23633;DHT22;11993;48.748;9.166;2023-08-07T06:42:46;12.70;73.90
23633;DHT22;11993;48.748;9.166;2023-08-07T06:45:11;12.80;73.30
23633;DHT22;11993;48.748;9.166;2023-08-07T06:47:37;12.70;73.50
23633;DHT22;11993;48.748;9.166;2023-08-07T06:50:03;12.90;73.70
23633;DHT22;11993;48.748;9.166;2023-08-07T06:52:28;13.00;73.30
23633;DHT22;11993;48.748;9.166;2023-08-07T06:54:54;13.10;72.60
23633;DHT22;11993;48.748;9.166;2023-08-07T06:57:19;13.20;72.40
23633;DHT22;11993;48.748;9.166;2023-08-07T06:59:45;13.20;72.00
23633;DHT22;11993;48.748;9.166;2023-08-07T07:02:10;13.30;71.40
23633;DHT22;11993;48.748;9.166;2023-08-07T07:04:36;13.20;71.40
23633;DHT22;11993;48.748;9.166;2023-08-07T07:07:02;13.40;70.90
23633;DHT22;11993;48.748;9.166;2023-08-07T07:09:28;13.40;70.00
23633;DHT22;11993;48.748;9.166;2023-08-07T07:11:54;13.40;70.00
23633;DHT22;11993;48.748;9.166;2023-08-07T07:14:20;13.60;70.10
23633;DHT22;11993;48.748;9.166;2023-08-07T07:16:46;13.40;69.30
23633;DHT22;11993;48.748;9.166;2023-08-07T07:19:12;13.30;68.90
23633;DHT22;11993;48.748;9.166;2023-08-07T07:21:38;13.40;69.00
23633;DHT22;11993;48.748;9.166;2023-08-07T07:24:03;13.30;69.80
23633;DHT22;11993;48.748;9.166;2023-08-07T07:26:29;13.40;70.00
23633;DHT22;11993;48.748;9.166;2023-08-07T07:28:55;13.60;69.70
23633;DHT22;11993;48.748;9.166;2023-08-07T07:31:21;13.40;69.00
23633;DHT22;11993;48.748;9.166;2023-08-07T07:33:46;13.70;69.20
23633;DHT22;11993;48.748;9.166;2023-08-07T07:36:16;13.90;69.40
23633;DHT22;11993;48.748;9.166;2023-08-07T07:38:42;13.90;68.40
23633;DHT22;11993;48.748;9.166;2023-08-07T07:41:07;13.70;68.60
23633;DHT22;11993;48.748;9.166;2023-08-07T07:43:36;13.70;68.90
23633;DHT22;11993;48.748;9.166;2023-08-07T07:46:03;13.90;68.80
23633;DHT22;11993;48.748;9.166;2023-08-07T07:48:28;14.10;67.30
23633;DHT22;11993;48.748;9.166;2023-08-07T07:51:03;14.30;66.80
23633;DHT22;11993;48.748;9.166;2023-08-07T07:53:30;14.30;64.30
23633;DHT22;11993;48.748;9.166;2023-08-07T07:55:56;14.20;64.10
23633;DHT22;11993;48.748;9.166;2023-08-07T07:58:21;14.40;64.60
23633;DHT22;11993;48.748;9.166;2023-08-07T08:00:47;14.60;63.40
23633;DHT22;11993;48.748;9.166;2023-08-07T08:03:13;14.70;64.30
23633;DHT22;11993;48.748;9.166;2023-08-07T08:05:39;14.70;64.10
23633;DHT22;11993;48.748;9.166;2023-08-07T08:08:06;14.50;62.10
23633;DHT22;11993;48.748;9.166;2023-08-07T08:10:32;14.60;62.60
23633;DHT22;11993;48.748;9.166;2023-08-07T08:12:58;14.60;63.60
23633;DHT22;11993;48.748;9.166;2023-08-07T08:15:23;14.60;63.50
23633;DHT22;11993;48.748;9.166;2023-08-07T08:17:49;14.60;63.20
23633;DHT22;11993;48.748;9.166;2023-08-07T08:20:15;14.40;62.00
23633;DHT22;11993;48.748;9.166;2023-08-07T08:22:42;14.30;61.20
23633;DHT22;11993;48.748;9.166;2023-08-07T08:25:08;14.20;62.10
23633;DHT22;11993;48.748;9.166;2023-08-07T08:27:35;14.20;62.70
23633;DHT22;11993;48.748;9.166;2023-08-07T08:30:01;14.30;62.60
23633;DHT22;11993;48.748;9.166;2023-08-07T08:32:26;14.40;61.90
23633;DHT22;11993;48.748;9.166;2023-08-07T08:34:52;14.60;61.90
23633;DHT22;11993;48.748;9.166;2023-08-07T08:37:17;14.80;60.00
23633;DHT22;11993;48.748;9.166;2023-08-07T08:39:43;15.10;58.80
23633;DHT22;11993;48.748;9.166;2023-08-07T08:42:11;15.20;58.20
23633;DHT22;11993;48.748;9.166;2023-08-07T08:44:39;15.50;57.60
23633;DHT22;11993;48.748;9.166;2023-08-07T08:47:04;15.50;57.50
23633;DHT22;11993;48.748;9.166;2023-08-07T08:49:35;15.90;56.80
23633;DHT22;11993;48.748;9.166;2023-08-07T08:52:02;16.00;55.10
23633;DHT22;11993;48.748;9.166;2023-08-07T08:54:28;16.00;54.50
23633;DHT22;11993;48.748;9.166;2023-08-07T08:56:56;16.00;54.90
23633;DHT22;11993;48.748;9.166;2023-08-07T08:59:22;16.30;55.40
23633;DHT22;11993;48.748;9.166;2023-08-07T09:01:50;16.80;53.80
23633;DHT22;11993;48.748;9.166;2023-08-07T09:04:16;16.90;53.20
23633;DHT22;11993;48.748;9.166;2023-08-07T09:06:43;16.90;52.20
23633;DHT22;11993;48.748;9.166;2023-08-07T09:09:10;16.90;52.10
23633;DHT22;11993;48.748;9.166;2023-08-07T09:11:38;16.90;53.00
23633;DHT22;11993;48.748;9.166;2023-08-07T09:14:04;17.10;53.40
23633;DHT22;11993;48.748;9.166;2023-08-07T09:16:30;17.60;52.50
23633;DHT22;11993;48.748;9.166;2023-08-07T09:18:56;17.40;52.70
23633;DHT22;11993;48.748;9.166;2023-08-07T09:21:22;17.40;53.60
23633;DHT22;11993;48.748;9.166;2023-08-07T09:23:48;17.00;51.80
23633;DHT22;11993;48.748;9.166;2023-08-07T09:26:13;17.10;52.10
23633;DHT22;11993;48.748;9.166;2023-08-07T09:28:46;17.00;52.30
23633;DHT22;11993;48.748;9.166;2023-08-07T09:31:15;17.00;53.10
23633;DHT22;11993;48.748;9.166;2023-08-07T09:33:40;17.10;53.00
23633;DHT22;11993;48.748;9.166;2023-08-07T09:36:07;17.10;51.60
23633;DHT22;11993;48.748;9.166;2023-08-07T09:38:33;17.10;51.30
23633;DHT22;11993;48.748;9.166;2023-08-07T09:41:02;17.60;52.60
23633;DHT22;11993;48.748;9.166;2023-08-07T09:43:29;17.90;51.20
23633;DHT22;11993;48.748;9.166;2023-08-07T09:46:07;17.90;51.70
23633;DHT22;11993;48.748;9.166;2023-08-07T09:48:42;18.00;50.90
23633;DHT22;11993;48.748;9.166;2023-08-07T09:51:08;18.10;50.80
23633;DHT22;11993;48.748;9.166;2023-08-07T09:53:34;17.90;51.60
23633;DHT22;11993;48.748;9.166;2023-08-07T09:56:00;17.70;52.10
23633;DHT22;11993;48.748;9.166;2023-08-07T09:58:26;17.10;52.00
23633;DHT22;11993;48.748;9.166;2023-08-07T10:00:53;17.20;51.80
23633;DHT22;11993;48.748;9.166;2023-08-07T10:03:19;17.50;52.20
23633;DHT22;11993;48.748;9.166;2023-08-07T10:05:45;17.80;51.30
23633;DHT22;11993;48.748;9.166;2023-08-07T10:08:12;17.60;51.90
23633;DHT22;11993;48.748;9.166;2023-08-07T10:10:38;17.70;51.60
23633;DHT22;11993;48.748;9.166;2023-08-07T10:13:05;17.80;50.70
23633;DHT22;11993;48.748;9.166;2023-08-07T10:15:32;18.00;51.70
23633;DHT22;11993;48.748;9.166;2023-08-07T10:17:58;18.40;50.70
23633;DHT22;11993;48.748;9.166;2023-08-07T10:20:28;18.60;49.40
23633;DHT22;11993;48.748;9.166;2023-08-07T10:22:57;18.40;48.20
23633;DHT22;11993;48.748;9.166;2023-08-07T10:25:26;18.40;49.00
23633;DHT22;11993;48.748;9.166;2023-08-07T10:27:53;18.30;49.20
23633;DHT22;11993;48.748;9.166;2023-08-07T10:30:21;18.10;49.10
23633;DHT22;11993;48.748;9.166;2023-08-07T10:32:48;17.80;51.30
23633;DHT22;11993;48.748;9.166;2023-08-07T10:35:29;17.50;50.40
23633;DHT22;11993;48.748;9.166;2023-08-07T10:38:14;18.20;48.50
23633;DHT22;11993;48.748;9.166;2023-08-07T10:40:59;18.30;48.30
23633;DHT22;11993;48.748;9.166;2023-08-07T10:43:25;18.60;47.80
23633;DHT22;11993;48.748;9.166;2023-08-07T10:45:53;18.50;47.00
23633;DHT22;11993;48.748;9.166;2023-08-07T10:48:21;18.00;47.10
23633;DHT22;11993;48.748;9.166;2023-08-07T10:55:54;17.80;50.70
23633;DHT22;11993;48.748;9.166;2023-08-07T10:58:31;17.70;49.10
23633;DHT22;11993;48.748;9.166;2023-08-07T11:01:20;17.60;50.20
23633;DHT22;11993;48.748;9.166;2023-08-07T11:04:00;17.70;50.10
23633;DHT22;11993;48.748;9.166;2023-08-07T11:06:30;17.90;49.50
23633;DHT22;11993;48.748;9.166;2023-08-07T11:08:57;18.30;49.70
23633;DHT22;11993;48.748;9.166;2023-08-07T11:11:23;18.30;49.60
23633;DHT22;11993;48.748;9.166;2023-08-07T11:13:48;18.80;49.20
23633;DHT22;11993;48.748;9.166;2023-08-07T11:16:14;18.40;50.00
23633;DHT22;11993;48.748;9.166;2023-08-07T11:18:42;18.00;49.50
23633;DHT22;11993;48.748;9.166;2023-08-07T11:21:08;17.90;50.10
23633;DHT22;11993;48.748;9.166;2023-08-07T11:23:36;17.40;50.50
23633;DHT22;11993;48.748;9.166;2023-08-07T11:26:02;17.20;52.00
23633;DHT22;11993;48.748;9.166;2023-08-07T11:28:28;17.20;51.80
23633;DHT22;11993;48.748;9.166;2023-08-07T11:30:54;17.00;52.80
23633;DHT22;11993;48.748;9.166;2023-08-07T11:33:25;17.10;53.10
23633;DHT22;11993;48.748;9.166;2023-08-07T11:35:51;16.90;53.10
23633;DHT22;11993;48.748;9.166;2023-08-07T11:38:34;16.70;54.50
23633;DHT22;11993;48.748;9.166;2023-08-07T11:41:01;16.60;55.10
23633;DHT22;11993;48.748;9.166;2023-08-07T11:43:28;16.60;54.60
23633;DHT22;11993;48.748;9.166;2023-08-07T11:45:56;16.30;55.60
23633;DHT22;11993;48.748;9.166;2023-08-07T11:48:24;16.30;55.00
23633;DHT22;11993;48.748;9.166;2023-08-07T11:50:52;16.20;56.40
23633;DHT22;11993;48.748;9.166;2023-08-07T11:53:19;16.30;56.60
23633;DHT22;11993;48.748;9.166;2023-08-07T11:55:52;16.10;57.30
23633;DHT22;11993;48.748;9.166;2023-08-07T11:58:21;16.20;57.50
23633;DHT22;11993;48.748;9.166;2023-08-07T12:00:47;16.10;57.00
23633;DHT22;11993;48.748;9.166;2023-08-07T12:03:30;16.10;57.20
23633;DHT22;11993;48.748;9.166;2023-08-07T12:05:57;15.90;57.50
23633;DHT22;11993;48.748;9.166;2023-08-07T12:08:23;15.80;59.00
23633;DHT22;11993;48.748;9.166;2023-08-07T12:10:53;15.90;58.30
23633;DHT22;11993;48.748;9.166;2023-08-07T12:13:23;16.00;58.20
23633;DHT22;11993;48.748;9.166;2023-08-07T12:15:51;16.00;57.70
23633;DHT22;11993;48.748;9.166;2023-08-07T12:18:19;16.00;58.10
23633;DHT22;11993;48.748;9.166;2023-08-07T12:20:45;15.90;58.10
23633;DHT22;11993;48.748;9.166;2023-08-07T12:23:17;15.80;59.40
23633;DHT22;11993;48.748;9.166;2023-08-07T12:25:43;15.70;63.10
23633;DHT22;11993;48.748;9.166;2023-08-07T12:28:09;15.90;62.90
23633;DHT22;11993;48.748;9.166;2023-08-07T12:30:35;15.80;64.20
23633;DHT22;11993;48.748;9.166;2023-08-07T12:33:01;15.90;65.80
23633;DHT22;11993;48.748;9.166;2023-08-07T12:35:30;15.90;64.40
23633;DHT22;11993;48.748;9.166;2023-08-07T12:37:55;15.80;65.20
23633;DHT22;11993;48.748;9.166;2023-08-07T12:40:21;16.10;64.20
23633;DHT22;11993;48.748;9.166;2023-08-07T12:42:51;16.40;63.60
23633;DHT22;11993;48.748;9.166;2023-08-07T12:45:16;16.70;61.50
23633;DHT22;11993;48.748;9.166;2023-08-07T12:47:44;16.80;60.50
23633;DHT22;11993;48.748;9.166;2023-08-07T12:50:10;17.00;60.30
23633;DHT22;11993;48.748;9.166;2023-08-07T12:52:36;17.20;59.10
23633;DHT22;11993;48.748;9.166;2023-08-07T12:55:01;17.40;58.30
23633;DHT22;11993;48.748;9.166;2023-08-07T12:57:27;17.50;58.20
23633;DHT22;11993;48.748;9.166;2023-08-07T12:59:52;17.50;58.10
23633;DHT22;11993;48.748;9.166;2023-08-07T13:02:18;17.60;57.60
23633;DHT22;11993;48.748;9.166;2023-08-07T13:04:43;17.50;56.70
23633;DHT22;11993;48.748;9.166;2023-08-07T13:07:09;17.40;55.90
23633;DHT22;11993;48.748;9.166;2023-08-07T13:09:35;17.40;56.60
23633;DHT22;11993;48.748;9.166;2023-08-07T13:12:00;17.40;57.80
23633;DHT22;11993;48.748;9.166;2023-08-07T13:14:26;17.60;55.40
23633;DHT22;11993;48.748;9.166;2023-08-07T13:16:52;17.80;56.50
23633;DHT22;11993;48.748;9.166;2023-08-07T13:19:17;17.90;55.60
23633;DHT22;11993;48.748;9.166;2023-08-07T13:21:46;18.10;55.70
23633;DHT22;11993;48.748;9.166;2023-08-07T13:24:12;17.30;55.50
23633;DHT22;11993;48.748;9.166;2023-08-07T13:26:37;17.30;56.30
23633;DHT22;11993;48.748;9.166;2023-08-07T13:29:13;17.30;57.00
23633;DHT22;11993;48.748;9.166;2023-08-07T13:31:38;17.50;56.20
23633;DHT22;11993;48.748;9.166;2023-08-07T13:34:04;17.60;57.70
23633;DHT22;11993;48.748;9.166;2023-08-07T13:36:35;17.60;56.70
23633;DHT22;11993;48.748;9.166;2023-08-07T13:39:01;17.20;56.70
23633;DHT22;11993;48.748;9.166;2023-08-07T13:41:27;17.10;56.90
23633;DHT22;11993;48.748;9.166;2023-08-07T13:43:52;17.20;57.30
23633;DHT22;11993;48.748;9.166;2023-08-07T13:46:18;17.10;57.30
23633;DHT22;11993;48.748;9.166;2023-08-07T13:48:47;17.10;56.20
23633;DHT22;11993;48.748;9.166;2023-08-07T13:51:14;17.30;56.20
23633;DHT22;11993;48.748;9.166;2023-08-07T13:53:39;17.70;55.90
23633;DHT22;11993;48.748;9.166;2023-08-07T13:58:32;17.60;56.00
23633;DHT22;11993;48.748;9.166;2023-08-07T14:00:58;17.70;55.70
23633;DHT22;11993;48.748;9.166;2023-08-07T14:03:23;17.90;56.50
23633;DHT22;11993;48.748;9.166;2023-08-07T14:05:49;18.10;56.20
23633;DHT22;11993;48.748;9.166;2023-08-07T14:08:15;18.00;54.70
23633;DHT22;11993;48.748;9.166;2023-08-07T14:10:41;17.80;53.30
23633;DHT22;11993;48.748;9.166;2023-08-07T14:13:07;17.80;52.50
23633;DHT22;11993;48.748;9.166;2023-08-07T14:15:33;18.00;53.20
23633;DHT22;11993;48.748;9.166;2023-08-07T14:17:58;18.00;53.30
23633;DHT22;11993;48.748;9.166;2023-08-07T14:20:26;18.10;52.60
23633;DHT22;11993;48.748;9.166;2023-08-07T14:22:51;18.60;51.40
23633;DHT22;11993;48.748;9.166;2023-08-07T14:25:17;18.60;53.20
23633;DHT22;11993;48.748;9.166;2023-08-07T14:27:42;18.50;51.40
23633;DHT22;11993;48.748;9.166;2023-08-07T14:30:08;18.50;52.40
23633;DHT22;11993;48.748;9.166;2023-08-07T14:32:34;18.40;52.10
23633;DHT22;11993;48.748;9.166;2023-08-07T14:35:00;18.10;50.70
23633;DHT22;11993;48.748;9.166;2023-08-07T14:37:25;17.90;51.30
23633;DHT22;11993;48.748;9.166;2023-08-07T14:39:51;17.60;51.80
23633;DHT22;11993;48.748;9.166;2023-08-07T14:42:16;17.70;53.10
23633;DHT22;11993;48.748;9.166;2023-08-07T14:44:42;17.90;52.60
23633;DHT22;11993;48.748;9.166;2023-08-07T14:47:07;17.90;52.60
23633;DHT22;11993;48.748;9.166;2023-08-07T14:49:33;17.80;52.40
23633;DHT22;11993;48.748;9.166;2023-08-07T14:51:58;17.70;52.90
23633;DHT22;11993;48.748;9.166;2023-08-07T14:54:24;17.50;53.80
23633;DHT22;11993;48.748;9.166;2023-08-07T14:56:49;17.50;54.00
23633;DHT22;11993;48.748;9.166;2023-08-07T14:59:15;17.90;54.60
23633;DHT22;11993;48.748;9.166;2023-08-07T15:01:41;18.20;52.80
23633;DHT22;11993;48.748;9.166;2023-08-07T15:04:06;18.50;53.10
23633;DHT22;11993;48.748;9.166;2023-08-07T15:06:32;18.60;53.70
23633;DHT22;11993;48.748;9.166;2023-08-07T15:08:58;18.60;53.90
23633;DHT22;11993;48.748;9.166;2023-08-07T15:11:24;18.60;51.20
23633;DHT22;11993;48.748;9.166;2023-08-07T15:13:49;18.70;51.60
23633;DHT22;11993;48.748;9.166;2023-08-07T15:16:15;19.10;51.00
23633;DHT22;11993;48.748;9.166;2023-08-07T15:18:41;19.00;51.20
23633;DHT22;11993;48.748;9.166;2023-08-07T15:21:06;19.00;50.70
23633;DHT22;11993;48.748;9.166;2023-08-07T15:23:32;18.70;51.20
23633;DHT22;11993;48.748;9.166;2023-08-07T15:25:58;18.50;51.10
23633;DHT22;11993;48.748;9.166;2023-08-07T15:28:23;18.40;52.10
23633;DHT22;11993;48.748;9.166;2023-08-07T15:30:50;18.10;53.10
23633;DHT22;11993;48.748;9.166;2023-08-07T15:33:17;18.10;53.20
23633;DHT22;11993;48.748;9.166;2023-08-07T15:35:43;18.10;53.00